sensor_id;sensor_type;location;lat;lon;timestamp;P1;durP1;ratioP1;P2;durP2;ratioP2
37303;SDS011;23188;51.188;16.374;2024-01-10T00:03:36;141.90;;;71.80;;
37303;SDS011;23188;51.188;16.374;2024-01-10T00:07:40;129.10;;;69.40;;
37303;SDS011;23188;51.188;16.374;2024-01-10T00:11:43;157.60;;;73.40;;
37303;SDS011;23188;51.188;16.374;2024-01-10T00:15:47;116.80;;;59.20;;
37303;SDS011;23188;51.188;16.374;2024-01-10T00:19:50;110.80;;;63.10;;
37303;SDS011;23188;51.188;16.374;2024-01-10T00:23:54;119.20;;;64.70;;
37303;SDS011;23188;51.188;16.374;2024-01-10T00:27:57;136.60;;;76.20;;
37303;SDS011;23188;51.188;16.374;2024-01-10T00:32:01;147.60;;;72.60;;
37303;SDS011;23188;51.188;16.374;2024-01-10T00:36:04;170.60;;;80.40;;
37303;SDS011;23188;51.188;16.374;2024-01-10T00:40:09;150.60;;;77.80;;
37303;SDS011;23188;51.188;16.374;2024-01-10T00:44:12;129.50;;;67.80;;
37303;SDS011;23188;51.188;16.374;2024-01-10T00:48:16;127.90;;;64.30;;
37303;SDS011;23188;51.188;16.374;2024-01-10T00:52:20;170.90;;;77.00;;
37303;SDS011;23188;51.188;16.374;2024-01-10T00:56:23;145.70;;;82.80;;
37303;SDS011;23188;51.188;16.374;2024-01-10T01:00:28;159.20;;;81.50;;
37303;SDS011;23188;51.188;16.374;2024-01-10T01:04:31;144.30;;;80.00;;
37303;SDS011;23188;51.188;16.374;2024-01-10T01:08:34;166.30;;;82.00;;
37303;SDS011;23188;51.188;16.374;2024-01-10T01:12:37;166.30;;;88.50;;
37303;SDS011;23188;51.188;16.374;2024-01-10T01:16:42;171.10;;;94.30;;
37303;SDS011;23188;51.188;16.374;2024-01-10T01:20:45;181.00;;;101.30;;
37303;SDS011;23188;51.188;16.374;2024-01-10T01:24:50;187.40;;;95.10;;
37303;SDS011;23188;51.188;16.374;2024-01-10T01:28:53;182.90;;;86.10;;
37303;SDS011;23188;51.188;16.374;2024-01-10T01:32:56;162.70;;;79.50;;
37303;SDS011;23188;51.188;16.374;2024-01-10T01:37:00;139.60;;;75.80;;
37303;SDS011;23188;51.188;16.374;2024-01-10T01:41:04;139.40;;;70.20;;
37303;SDS011;23188;51.188;16.374;2024-01-10T01:45:08;133.10;;;68.60;;
37303;SDS011;23188;51.188;16.374;2024-01-10T01:49:12;124.30;;;68.20;;
37303;SDS011;23188;51.188;16.374;2024-01-10T01:53:15;131.10;;;73.20;;
37303;SDS011;23188;51.188;16.374;2024-01-10T01:57:20;161.60;;;84.00;;
37303;SDS011;23188;51.188;16.374;2024-01-10T02:01:23;134.90;;;67.10;;
37303;SDS011;23188;51.188;16.374;2024-01-10T02:05:26;130.70;;;64.90;;
37303;SDS011;23188;51.188;16.374;2024-01-10T02:09:30;117.70;;;65.20;;
37303;SDS011;23188;51.188;16.374;2024-01-10T02:13:34;116.00;;;66.10;;
37303;SDS011;23188;51.188;16.374;2024-01-10T02:17:38;126.90;;;66.40;;
37303;SDS011;23188;51.188;16.374;2024-01-10T02:21:41;118.00;;;61.70;;
37303;SDS011;23188;51.188;16.374;2024-01-10T02:25:45;149.50;;;70.50;;
37303;SDS011;23188;51.188;16.374;2024-01-10T02:29:48;138.80;;;68.20;;
37303;SDS011;23188;51.188;16.374;2024-01-10T02:33:52;124.30;;;71.00;;
37303;SDS011;23188;51.188;16.374;2024-01-10T02:37:56;145.50;;;75.30;;
37303;SDS011;23188;51.188;16.374;2024-01-10T02:41:59;123.80;;;66.50;;
37303;SDS011;23188;51.188;16.374;2024-01-10T02:46:03;129.60;;;70.20;;
37303;SDS011;23188;51.188;16.374;2024-01-10T02:50:06;133.20;;;63.10;;
37303;SDS011;23188;51.188;16.374;2024-01-10T02:54:10;125.00;;;65.00;;
37303;SDS011;23188;51.188;16.374;2024-01-10T02:58:13;114.50;;;61.40;;
37303;SDS011;23188;51.188;16.374;2024-01-10T03:02:17;116.00;;;68.90;;
37303;SDS011;23188;51.188;16.374;2024-01-10T03:06:20;122.20;;;67.20;;
37303;SDS011;23188;51.188;16.374;2024-01-10T03:10:24;115.00;;;66.90;;
37303;SDS011;23188;51.188;16.374;2024-01-10T03:14:28;123.10;;;66.90;;
37303;SDS011;23188;51.188;16.374;2024-01-10T03:18:31;146.20;;;68.20;;
37303;SDS011;23188;51.188;16.374;2024-01-10T03:22:34;124.50;;;70.00;;
37303;SDS011;23188;51.188;16.374;2024-01-10T03:26:38;134.90;;;68.40;;
37303;SDS011;23188;51.188;16.374;2024-01-10T03:30:41;138.60;;;70.80;;
37303;SDS011;23188;51.188;16.374;2024-01-10T03:34:45;148.20;;;69.20;;
37303;SDS011;23188;51.188;16.374;2024-01-10T03:38:49;125.00;;;64.20;;
37303;SDS011;23188;51.188;16.374;2024-01-10T03:42:52;140.20;;;72.90;;
37303;SDS011;23188;51.188;16.374;2024-01-10T03:46:55;139.90;;;73.20;;
37303;SDS011;23188;51.188;16.374;2024-01-10T03:50:58;125.60;;;73.80;;
37303;SDS011;23188;51.188;16.374;2024-01-10T03:55:02;150.10;;;73.20;;
37303;SDS011;23188;51.188;16.374;2024-01-10T03:59:05;141.20;;;68.30;;
37303;SDS011;23188;51.188;16.374;2024-01-10T04:03:09;125.60;;;67.30;;
37303;SDS011;23188;51.188;16.374;2024-01-10T04:07:12;143.60;;;70.90;;
37303;SDS011;23188;51.188;16.374;2024-01-10T04:11:16;127.60;;;66.10;;
37303;SDS011;23188;51.188;16.374;2024-01-10T04:15:19;143.00;;;71.30;;
37303;SDS011;23188;51.188;16.374;2024-01-10T04:19:22;144.50;;;65.50;;
37303;SDS011;23188;51.188;16.374;2024-01-10T04:23:25;124.20;;;69.80;;
37303;SDS011;23188;51.188;16.374;2024-01-10T04:27:29;115.00;;;58.40;;
37303;SDS011;23188;51.188;16.374;2024-01-10T04:31:32;123.80;;;64.90;;
37303;SDS011;23188;51.188;16.374;2024-01-10T04:35:36;136.10;;;69.10;;
37303;SDS011;23188;51.188;16.374;2024-01-10T04:39:39;120.40;;;61.80;;
37303;SDS011;23188;51.188;16.374;2024-01-10T04:43:45;134.80;;;71.90;;
37303;SDS011;23188;51.188;16.374;2024-01-10T04:47:48;127.60;;;68.70;;
37303;SDS011;23188;51.188;16.374;2024-01-10T04:51:52;122.20;;;61.60;;
37303;SDS011;23188;51.188;16.374;2024-01-10T04:55:55;136.10;;;70.40;;
37303;SDS011;23188;51.188;16.374;2024-01-10T04:59:59;129.30;;;69.20;;
37303;SDS011;23188;51.188;16.374;2024-01-10T05:04:02;127.30;;;69.80;;
37303;SDS011;23188;51.188;16.374;2024-01-10T05:08:06;156.30;;;70.70;;
37303;SDS011;23188;51.188;16.374;2024-01-10T05:12:09;121.80;;;66.20;;
37303;SDS011;23188;51.188;16.374;2024-01-10T05:16:12;122.90;;;67.50;;
37303;SDS011;23188;51.188;16.374;2024-01-10T05:20:16;133.20;;;72.90;;
37303;SDS011;23188;51.188;16.374;2024-01-10T05:24:19;129.20;;;68.70;;
37303;SDS011;23188;51.188;16.374;2024-01-10T05:28:22;153.30;;;79.30;;
37303;SDS011;23188;51.188;16.374;2024-01-10T05:32:26;139.20;;;73.10;;
37303;SDS011;23188;51.188;16.374;2024-01-10T05:36:30;155.00;;;80.20;;
37303;SDS011;23188;51.188;16.374;2024-01-10T05:40:33;151.50;;;77.50;;
37303;SDS011;23188;51.188;16.374;2024-01-10T05:44:37;140.90;;;75.20;;
37303;SDS011;23188;51.188;16.374;2024-01-10T05:48:42;130.70;;;70.60;;
37303;SDS011;23188;51.188;16.374;2024-01-10T05:52:46;132.10;;;70.20;;
37303;SDS011;23188;51.188;16.374;2024-01-10T06:00:55;146.70;;;66.70;;
37303;SDS011;23188;51.188;16.374;2024-01-10T06:04:58;147.60;;;73.70;;
37303;SDS011;23188;51.188;16.374;2024-01-10T06:09:05;160.60;;;75.60;;
37303;SDS011;23188;51.188;16.374;2024-01-10T06:13:08;136.80;;;70.90;;
37303;SDS011;23188;51.188;16.374;2024-01-10T06:17:12;131.00;;;68.60;;
37303;SDS011;23188;51.188;16.374;2024-01-10T06:21:15;131.90;;;70.60;;
37303;SDS011;23188;51.188;16.374;2024-01-10T06:25:18;127.00;;;68.40;;
37303;SDS011;23188;51.188;16.374;2024-01-10T06:29:22;121.40;;;65.00;;
37303;SDS011;23188;51.188;16.374;2024-01-10T06:33:25;131.60;;;66.20;;
37303;SDS011;23188;51.188;16.374;2024-01-10T06:37:29;160.30;;;75.20;;
37303;SDS011;23188;51.188;16.374;2024-01-10T06:41:33;125.20;;;66.10;;
37303;SDS011;23188;51.188;16.374;2024-01-10T06:45:37;117.70;;;66.90;;
37303;SDS011;23188;51.188;16.374;2024-01-10T06:49:40;128.80;;;68.00;;
37303;SDS011;23188;51.188;16.374;2024-01-10T06:53:44;124.40;;;63.60;;
37303;SDS011;23188;51.188;16.374;2024-01-10T06:57:47;150.90;;;76.80;;
37303;SDS011;23188;51.188;16.374;2024-01-10T07:01:52;158.10;;;83.50;;
37303;SDS011;23188;51.188;16.374;2024-01-10T07:05:56;149.60;;;74.40;;
37303;SDS011;23188;51.188;16.374;2024-01-10T07:10:00;153.40;;;76.90;;
37303;SDS011;23188;51.188;16.374;2024-01-10T07:14:07;156.70;;;77.90;;
37303;SDS011;23188;51.188;16.374;2024-01-10T07:18:10;256.80;;;142.50;;
37303;SDS011;23188;51.188;16.374;2024-01-10T07:22:15;130.70;;;62.00;;
37303;SDS011;23188;51.188;16.374;2024-01-10T07:26:18;173.20;;;96.40;;
37303;SDS011;23188;51.188;16.374;2024-01-10T07:30:22;144.10;;;88.50;;
37303;SDS011;23188;51.188;16.374;2024-01-10T07:34:26;184.00;;;98.00;;
37303;SDS011;23188;51.188;16.374;2024-01-10T07:38:30;159.10;;;75.50;;
37303;SDS011;23188;51.188;16.374;2024-01-10T07:42:33;136.40;;;72.40;;
37303;SDS011;23188;51.188;16.374;2024-01-10T07:46:37;116.50;;;58.60;;
37303;SDS011;23188;51.188;16.374;2024-01-10T07:50:41;144.30;;;81.90;;
37303;SDS011;23188;51.188;16.374;2024-01-10T07:54:45;147.00;;;73.10;;
37303;SDS011;23188;51.188;16.374;2024-01-10T07:58:48;142.60;;;76.00;;
37303;SDS011;23188;51.188;16.374;2024-01-10T08:02:51;133.60;;;64.90;;
37303;SDS011;23188;51.188;16.374;2024-01-10T08:06:55;152.20;;;74.60;;
37303;SDS011;23188;51.188;16.374;2024-01-10T08:10:58;126.90;;;69.90;;
37303;SDS011;23188;51.188;16.374;2024-01-10T08:15:02;102.90;;;47.10;;
37303;SDS011;23188;51.188;16.374;2024-01-10T08:19:06;87.60;;;42.10;;
37303;SDS011;23188;51.188;16.374;2024-01-10T08:23:10;123.70;;;59.80;;
37303;SDS011;23188;51.188;16.374;2024-01-10T08:27:14;132.90;;;69.10;;
37303;SDS011;23188;51.188;16.374;2024-01-10T08:31:17;133.70;;;61.80;;
37303;SDS011;23188;51.188;16.374;2024-01-10T08:35:20;134.00;;;70.20;;
37303;SDS011;23188;51.188;16.374;2024-01-10T08:39:29;136.40;;;75.30;;
37303;SDS011;23188;51.188;16.374;2024-01-10T08:43:33;134.70;;;71.40;;
37303;SDS011;23188;51.188;16.374;2024-01-10T08:47:37;122.90;;;66.80;;
37303;SDS011;23188;51.188;16.374;2024-01-10T08:51:40;124.90;;;64.80;;
37303;SDS011;23188;51.188;16.374;2024-01-10T08:55:45;136.90;;;67.80;;
37303;SDS011;23188;51.188;16.374;2024-01-10T08:59:50;148.40;;;69.90;;
37303;SDS011;23188;51.188;16.374;2024-01-10T09:03:53;122.20;;;70.80;;
37303;SDS011;23188;51.188;16.374;2024-01-10T09:07:57;139.20;;;72.50;;
37303;SDS011;23188;51.188;16.374;2024-01-10T09:12:00;128.10;;;74.20;;
37303;SDS011;23188;51.188;16.374;2024-01-10T09:16:04;143.70;;;72.00;;
37303;SDS011;23188;51.188;16.374;2024-01-10T09:20:08;125.10;;;66.50;;
37303;SDS011;23188;51.188;16.374;2024-01-10T09:24:11;110.70;;;65.10;;
37303;SDS011;23188;51.188;16.374;2024-01-10T09:28:30;111.40;;;61.00;;
37303;SDS011;23188;51.188;16.374;2024-01-10T09:32:33;113.80;;;69.20;;
37303;SDS011;23188;51.188;16.374;2024-01-10T09:36:37;104.70;;;60.50;;
37303;SDS011;23188;51.188;16.374;2024-01-10T09:40:40;152.30;;;77.10;;
37303;SDS011;23188;51.188;16.374;2024-01-10T09:44:45;169.10;;;83.00;;
37303;SDS011;23188;51.188;16.374;2024-01-10T09:48:50;122.90;;;69.90;;
37303;SDS011;23188;51.188;16.374;2024-01-10T09:52:58;144.90;;;73.60;;
37303;SDS011;23188;51.188;16.374;2024-01-10T09:57:10;123.90;;;64.70;;
37303;SDS011;23188;51.188;16.374;2024-01-10T10:01:13;133.80;;;71.00;;
37303;SDS011;23188;51.188;16.374;2024-01-10T10:05:17;121.70;;;72.10;;
37303;SDS011;23188;51.188;16.374;2024-01-10T10:09:21;134.80;;;73.60;;
37303;SDS011;23188;51.188;16.374;2024-01-10T10:13:27;169.50;;;83.80;;
37303;SDS011;23188;51.188;16.374;2024-01-10T10:17:32;144.00;;;76.80;;
37303;SDS011;23188;51.188;16.374;2024-01-10T10:21:36;136.40;;;70.60;;
37303;SDS011;23188;51.188;16.374;2024-01-10T10:25:42;131.50;;;71.80;;
37303;SDS011;23188;51.188;16.374;2024-01-10T10:29:46;128.00;;;64.90;;
37303;SDS011;23188;51.188;16.374;2024-01-10T10:33:50;148.90;;;75.70;;
37303;SDS011;23188;51.188;16.374;2024-01-10T10:37:54;154.30;;;83.00;;
37303;SDS011;23188;51.188;16.374;2024-01-10T10:41:58;163.50;;;87.80;;
37303;SDS011;23188;51.188;16.374;2024-01-10T10:46:03;157.90;;;87.20;;
37303;SDS011;23188;51.188;16.374;2024-01-10T10:50:07;157.50;;;90.30;;
37303;SDS011;23188;51.188;16.374;2024-01-10T10:54:15;281.30;;;155.40;;
37303;SDS011;23188;51.188;16.374;2024-01-10T10:58:21;148.90;;;81.30;;
37303;SDS011;23188;51.188;16.374;2024-01-10T11:02:27;127.80;;;69.80;;
37303;SDS011;23188;51.188;16.374;2024-01-10T11:06:33;137.40;;;73.80;;
37303;SDS011;23188;51.188;16.374;2024-01-10T11:10:37;150.50;;;77.20;;
37303;SDS011;23188;51.188;16.374;2024-01-10T11:23:48;184.10;;;94.90;;
37303;SDS011;23188;51.188;16.374;2024-01-10T11:27:54;188.70;;;105.70;;
37303;SDS011;23188;51.188;16.374;2024-01-10T11:32:15;184.80;;;99.40;;
37303;SDS011;23188;51.188;16.374;2024-01-10T11:36:20;191.40;;;103.60;;
37303;SDS011;23188;51.188;16.374;2024-01-10T11:40:46;166.40;;;94.70;;
37303;SDS011;23188;51.188;16.374;2024-01-10T11:44:53;133.30;;;78.80;;
37303;SDS011;23188;51.188;16.374;2024-01-10T11:48:56;140.00;;;80.70;;
37303;SDS011;23188;51.188;16.374;2024-01-10T11:53:02;136.30;;;74.40;;
37303;SDS011;23188;51.188;16.374;2024-01-10T11:57:13;133.60;;;79.90;;
37303;SDS011;23188;51.188;16.374;2024-01-10T12:01:17;144.20;;;79.20;;
37303;SDS011;23188;51.188;16.374;2024-01-10T12:05:21;131.60;;;79.80;;
37303;SDS011;23188;51.188;16.374;2024-01-10T12:09:24;142.90;;;76.60;;
37303;SDS011;23188;51.188;16.374;2024-01-10T12:13:28;145.90;;;72.20;;
37303;SDS011;23188;51.188;16.374;2024-01-10T12:17:32;181.00;;;90.40;;
37303;SDS011;23188;51.188;16.374;2024-01-10T12:21:35;157.30;;;81.50;;
37303;SDS011;23188;51.188;16.374;2024-01-10T12:25:39;127.70;;;76.10;;
37303;SDS011;23188;51.188;16.374;2024-01-10T12:29:42;157.30;;;87.40;;
37303;SDS011;23188;51.188;16.374;2024-01-10T12:33:45;175.10;;;89.40;;
37303;SDS011;23188;51.188;16.374;2024-01-10T12:37:53;155.70;;;91.20;;
37303;SDS011;23188;51.188;16.374;2024-01-10T12:42:01;172.90;;;90.20;;
37303;SDS011;23188;51.188;16.374;2024-01-10T12:46:11;176.30;;;93.30;;
37303;SDS011;23188;51.188;16.374;2024-01-10T12:50:14;160.00;;;88.80;;
37303;SDS011;23188;51.188;16.374;2024-01-10T12:54:18;185.00;;;103.80;;
37303;SDS011;23188;51.188;16.374;2024-01-10T12:58:21;183.10;;;93.90;;
37303;SDS011;23188;51.188;16.374;2024-01-10T13:02:25;143.30;;;87.40;;
37303;SDS011;23188;51.188;16.374;2024-01-10T13:06:28;160.10;;;88.10;;
37303;SDS011;23188;51.188;16.374;2024-01-10T13:10:31;158.30;;;83.60;;
37303;SDS011;23188;51.188;16.374;2024-01-10T13:14:35;148.40;;;85.00;;
37303;SDS011;23188;51.188;16.374;2024-01-10T13:18:38;197.90;;;106.20;;
37303;SDS011;23188;51.188;16.374;2024-01-10T13:22:42;166.50;;;96.30;;
37303;SDS011;23188;51.188;16.374;2024-01-10T13:26:45;165.70;;;94.50;;
37303;SDS011;23188;51.188;16.374;2024-01-10T13:30:49;157.50;;;84.30;;
37303;SDS011;23188;51.188;16.374;2024-01-10T13:34:53;158.50;;;94.00;;
37303;SDS011;23188;51.188;16.374;2024-01-10T13:38:56;161.80;;;92.30;;
37303;SDS011;23188;51.188;16.374;2024-01-10T13:43:00;167.60;;;90.90;;
37303;SDS011;23188;51.188;16.374;2024-01-10T13:47:06;182.70;;;91.30;;
37303;SDS011;23188;51.188;16.374;2024-01-10T13:51:09;167.50;;;93.70;;
37303;SDS011;23188;51.188;16.374;2024-01-10T13:55:13;170.50;;;88.00;;
37303;SDS011;23188;51.188;16.374;2024-01-10T13:59:16;169.10;;;91.10;;
37303;SDS011;23188;51.188;16.374;2024-01-10T14:03:19;161.50;;;90.70;;
37303;SDS011;23188;51.188;16.374;2024-01-10T14:07:23;153.90;;;89.30;;
37303;SDS011;23188;51.188;16.374;2024-01-10T14:11:27;148.30;;;88.60;;
37303;SDS011;23188;51.188;16.374;2024-01-10T14:15:30;145.70;;;77.80;;
37303;SDS011;23188;51.188;16.374;2024-01-10T14:19:33;158.90;;;83.40;;
37303;SDS011;23188;51.188;16.374;2024-01-10T14:23:36;144.60;;;79.30;;
37303;SDS011;23188;51.188;16.374;2024-01-10T14:27:40;146.60;;;74.60;;
37303;SDS011;23188;51.188;16.374;2024-01-10T14:31:43;171.80;;;90.00;;
37303;SDS011;23188;51.188;16.374;2024-01-10T14:35:51;161.70;;;93.50;;
37303;SDS011;23188;51.188;16.374;2024-01-10T14:39:55;160.40;;;93.60;;
37303;SDS011;23188;51.188;16.374;2024-01-10T14:43:58;155.60;;;87.90;;
37303;SDS011;23188;51.188;16.374;2024-01-10T14:48:03;154.20;;;90.70;;
37303;SDS011;23188;51.188;16.374;2024-01-10T14:52:07;170.50;;;98.70;;
37303;SDS011;23188;51.188;16.374;2024-01-10T14:56:10;187.40;;;100.20;;
37303;SDS011;23188;51.188;16.374;2024-01-10T15:00:13;172.40;;;98.80;;
37303;SDS011;23188;51.188;16.374;2024-01-10T15:04:17;253.40;;;131.00;;
37303;SDS011;23188;51.188;16.374;2024-01-10T15:08:20;375.50;;;186.80;;
37303;SDS011;23188;51.188;16.374;2024-01-10T15:12:23;268.00;;;137.50;;
37303;SDS011;23188;51.188;16.374;2024-01-10T15:16:27;236.80;;;123.50;;
37303;SDS011;23188;51.188;16.374;2024-01-10T15:20:30;261.70;;;140.90;;
37303;SDS011;23188;51.188;16.374;2024-01-10T15:24:33;315.60;;;155.00;;
37303;SDS011;23188;51.188;16.374;2024-01-10T15:28:36;326.60;;;154.30;;
37303;SDS011;23188;51.188;16.374;2024-01-10T15:32:40;270.00;;;146.20;;
37303;SDS011;23188;51.188;16.374;2024-01-10T15:36:44;288.80;;;143.80;;
37303;SDS011;23188;51.188;16.374;2024-01-10T15:40:49;260.40;;;141.90;;
37303;SDS011;23188;51.188;16.374;2024-01-10T15:44:52;260.10;;;136.40;;
37303;SDS011;23188;51.188;16.374;2024-01-10T15:48:55;300.60;;;162.70;;
37303;SDS011;23188;51.188;16.374;2024-01-10T15:52:59;371.20;;;192.10;;
37303;SDS011;23188;51.188;16.374;2024-01-10T15:57:02;488.50;;;269.10;;
37303;SDS011;23188;51.188;16.374;2024-01-10T16:01:06;693.50;;;392.30;;
37303;SDS011;23188;51.188;16.374;2024-01-10T16:05:10;723.80;;;422.50;;
37303;SDS011;23188;51.188;16.374;2024-01-10T16:09:13;665.70;;;379.70;;
37303;SDS011;23188;51.188;16.374;2024-01-10T16:13:16;560.10;;;313.60;;
37303;SDS011;23188;51.188;16.374;2024-01-10T16:17:20;351.80;;;181.80;;
37303;SDS011;23188;51.188;16.374;2024-01-10T16:21:23;210.80;;;120.70;;
37303;SDS011;23188;51.188;16.374;2024-01-10T16:25:27;198.30;;;114.40;;
37303;SDS011;23188;51.188;16.374;2024-01-10T16:29:30;188.70;;;103.00;;
37303;SDS011;23188;51.188;16.374;2024-01-10T16:33:33;171.50;;;94.60;;
37303;SDS011;23188;51.188;16.374;2024-01-10T16:37:36;202.00;;;104.60;;
37303;SDS011;23188;51.188;16.374;2024-01-10T16:41:40;219.00;;;109.20;;
37303;SDS011;23188;51.188;16.374;2024-01-10T16:45:43;215.20;;;111.90;;
37303;SDS011;23188;51.188;16.374;2024-01-10T16:49:46;212.20;;;117.60;;
37303;SDS011;23188;51.188;16.374;2024-01-10T16:53:49;218.50;;;116.50;;
37303;SDS011;23188;51.188;16.374;2024-01-10T16:57:52;220.10;;;118.30;;
37303;SDS011;23188;51.188;16.374;2024-01-10T17:01:56;229.90;;;127.10;;
37303;SDS011;23188;51.188;16.374;2024-01-10T17:06:00;218.10;;;109.50;;
37303;SDS011;23188;51.188;16.374;2024-01-10T17:10:04;238.60;;;126.70;;
37303;SDS011;23188;51.188;16.374;2024-01-10T17:14:08;247.20;;;140.20;;
37303;SDS011;23188;51.188;16.374;2024-01-10T17:18:12;340.10;;;174.40;;
37303;SDS011;23188;51.188;16.374;2024-01-10T17:22:15;290.30;;;151.20;;
37303;SDS011;23188;51.188;16.374;2024-01-10T17:26:18;295.70;;;150.90;;
37303;SDS011;23188;51.188;16.374;2024-01-10T17:30:22;288.70;;;141.20;;
37303;SDS011;23188;51.188;16.374;2024-01-10T17:34:26;241.20;;;133.00;;
37303;SDS011;23188;51.188;16.374;2024-01-10T17:38:29;239.00;;;129.40;;
37303;SDS011;23188;51.188;16.374;2024-01-10T17:42:33;238.80;;;133.20;;
37303;SDS011;23188;51.188;16.374;2024-01-10T17:46:36;203.70;;;97.60;;
37303;SDS011;23188;51.188;16.374;2024-01-10T17:50:39;225.50;;;119.90;;
37303;SDS011;23188;51.188;16.374;2024-01-10T17:54:43;218.50;;;112.90;;
37303;SDS011;23188;51.188;16.374;2024-01-10T17:58:47;364.90;;;171.50;;
37303;SDS011;23188;51.188;16.374;2024-01-10T18:02:50;287.30;;;151.60;;
37303;SDS011;23188;51.188;16.374;2024-01-10T18:06:54;288.00;;;149.50;;
37303;SDS011;23188;51.188;16.374;2024-01-10T18:10:57;286.10;;;146.70;;
37303;SDS011;23188;51.188;16.374;2024-01-10T18:15:01;284.30;;;143.20;;
37303;SDS011;23188;51.188;16.374;2024-01-10T18:19:04;261.40;;;138.70;;
37303;SDS011;23188;51.188;16.374;2024-01-10T18:23:07;242.10;;;131.50;;
37303;SDS011;23188;51.188;16.374;2024-01-10T18:27:10;208.30;;;116.90;;
37303;SDS011;23188;51.188;16.374;2024-01-10T18:31:13;213.50;;;105.40;;
37303;SDS011;23188;51.188;16.374;2024-01-10T18:35:17;182.10;;;92.70;;
37303;SDS011;23188;51.188;16.374;2024-01-10T18:39:23;218.50;;;119.20;;
37303;SDS011;23188;51.188;16.374;2024-01-10T18:43:27;241.80;;;124.80;;
37303;SDS011;23188;51.188;16.374;2024-01-10T18:47:30;288.50;;;141.50;;
37303;SDS011;23188;51.188;16.374;2024-01-10T18:51:34;236.80;;;121.00;;
37303;SDS011;23188;51.188;16.374;2024-01-10T18:55:37;246.90;;;121.40;;
37303;SDS011;23188;51.188;16.374;2024-01-10T18:59:40;224.90;;;116.10;;
37303;SDS011;23188;51.188;16.374;2024-01-10T19:03:43;194.90;;;103.20;;
37303;SDS011;23188;51.188;16.374;2024-01-10T19:07:47;225.90;;;113.80;;
37303;SDS011;23188;51.188;16.374;2024-01-10T19:11:54;205.90;;;109.20;;
37303;SDS011;23188;51.188;16.374;2024-01-10T19:15:58;244.10;;;116.40;;
37303;SDS011;23188;51.188;16.374;2024-01-10T19:20:01;249.60;;;130.70;;
37303;SDS011;23188;51.188;16.374;2024-01-10T19:24:07;228.10;;;122.80;;
37303;SDS011;23188;51.188;16.374;2024-01-10T19:28:10;322.60;;;166.40;;
37303;SDS011;23188;51.188;16.374;2024-01-10T19:32:13;292.40;;;150.20;;
37303;SDS011;23188;51.188;16.374;2024-01-10T19:36:17;253.30;;;134.80;;
37303;SDS011;23188;51.188;16.374;2024-01-10T19:40:22;245.80;;;128.20;;
37303;SDS011;23188;51.188;16.374;2024-01-10T19:44:26;232.10;;;124.90;;
37303;SDS011;23188;51.188;16.374;2024-01-10T19:48:30;211.40;;;115.10;;
37303;SDS011;23188;51.188;16.374;2024-01-10T19:52:37;183.50;;;93.60;;
37303;SDS011;23188;51.188;16.374;2024-01-10T19:56:40;181.90;;;87.20;;
37303;SDS011;23188;51.188;16.374;2024-01-10T20:00:43;176.10;;;90.20;;
37303;SDS011;23188;51.188;16.374;2024-01-10T20:04:47;203.40;;;101.70;;
37303;SDS011;23188;51.188;16.374;2024-01-10T20:08:51;181.00;;;92.60;;
37303;SDS011;23188;51.188;16.374;2024-01-10T20:12:54;182.40;;;100.40;;
37303;SDS011;23188;51.188;16.374;2024-01-10T20:16:57;189.30;;;101.90;;
37303;SDS011;23188;51.188;16.374;2024-01-10T20:21:01;172.30;;;98.40;;
37303;SDS011;23188;51.188;16.374;2024-01-10T20:25:05;170.60;;;95.60;;
37303;SDS011;23188;51.188;16.374;2024-01-10T20:29:09;193.50;;;100.30;;
37303;SDS011;23188;51.188;16.374;2024-01-10T20:33:12;174.30;;;92.60;;
37303;SDS011;23188;51.188;16.374;2024-01-10T20:37:15;172.20;;;95.40;;
37303;SDS011;23188;51.188;16.374;2024-01-10T20:41:18;198.00;;;114.90;;
37303;SDS011;23188;51.188;16.374;2024-01-10T20:45:22;221.50;;;116.90;;
37303;SDS011;23188;51.188;16.374;2024-01-10T20:49:25;228.70;;;117.30;;
37303;SDS011;23188;51.188;16.374;2024-01-10T20:53:28;222.50;;;107.70;;
37303;SDS011;23188;51.188;16.374;2024-01-10T20:57:31;224.20;;;115.30;;
37303;SDS011;23188;51.188;16.374;2024-01-10T21:01:35;206.70;;;114.70;;
37303;SDS011;23188;51.188;16.374;2024-01-10T21:05:38;196.00;;;102.60;;
37303;SDS011;23188;51.188;16.374;2024-01-10T21:09:42;186.80;;;92.70;;
37303;SDS011;23188;51.188;16.374;2024-01-10T21:13:45;204.30;;;106.00;;
37303;SDS011;23188;51.188;16.374;2024-01-10T21:17:48;174.00;;;99.90;;
37303;SDS011;23188;51.188;16.374;2024-01-10T21:21:51;197.00;;;105.70;;
37303;SDS011;23188;51.188;16.374;2024-01-10T21:25:54;230.30;;;114.40;;
37303;SDS011;23188;51.188;16.374;2024-01-10T21:29:58;216.70;;;119.20;;
37303;SDS011;23188;51.188;16.374;2024-01-10T21:34:01;202.90;;;116.50;;
37303;SDS011;23188;51.188;16.374;2024-01-10T21:38:04;220.10;;;109.00;;
37303;SDS011;23188;51.188;16.374;2024-01-10T21:42:07;202.30;;;109.70;;
37303;SDS011;23188;51.188;16.374;2024-01-10T21:46:10;189.90;;;107.50;;
37303;SDS011;23188;51.188;16.374;2024-01-10T21:50:15;192.30;;;115.50;;
37303;SDS011;23188;51.188;16.374;2024-01-10T21:54:18;227.70;;;116.30;;
37303;SDS011;23188;51.188;16.374;2024-01-10T21:58:21;248.10;;;123.30;;
37303;SDS011;23188;51.188;16.374;2024-01-10T22:02:24;244.00;;;120.20;;
37303;SDS011;23188;51.188;16.374;2024-01-10T22:06:27;232.00;;;120.80;;
37303;SDS011;23188;51.188;16.374;2024-01-10T22:10:30;199.70;;;98.60;;
37303;SDS011;23188;51.188;16.374;2024-01-10T22:14:33;239.50;;;120.70;;
37303;SDS011;23188;51.188;16.374;2024-01-10T22:18:37;221.40;;;108.00;;
37303;SDS011;23188;51.188;16.374;2024-01-10T22:22:40;248.50;;;121.40;;
37303;SDS011;23188;51.188;16.374;2024-01-10T22:26:43;228.50;;;115.50;;
37303;SDS011;23188;51.188;16.374;2024-01-10T22:30:47;190.80;;;110.70;;
37303;SDS011;23188;51.188;16.374;2024-01-10T22:34:50;221.80;;;115.90;;
37303;SDS011;23188;51.188;16.374;2024-01-10T22:38:53;227.80;;;115.20;;
37303;SDS011;23188;51.188;16.374;2024-01-10T22:42:56;241.60;;;119.50;;
37303;SDS011;23188;51.188;16.374;2024-01-10T22:47:00;229.40;;;130.70;;
37303;SDS011;23188;51.188;16.374;2024-01-10T22:51:03;214.30;;;117.40;;
37303;SDS011;23188;51.188;16.374;2024-01-10T22:55:06;198.40;;;104.20;;
37303;SDS011;23188;51.188;16.374;2024-01-10T22:59:09;194.50;;;101.20;;
37303;SDS011;23188;51.188;16.374;2024-01-10T23:03:13;185.60;;;96.50;;
37303;SDS011;23188;51.188;16.374;2024-01-10T23:07:16;221.10;;;114.40;;
37303;SDS011;23188;51.188;16.374;2024-01-10T23:11:19;245.90;;;128.10;;
37303;SDS011;23188;51.188;16.374;2024-01-10T23:15:23;267.10;;;139.80;;